Time;durP1;ratioP1;P1;durP2;ratioP2;P2;SDS_P1;SDS_P2;PMS_P1;PMS_P2;Temp;Humidity;BMP_temperature;BMP_pressure;BME280_temperature;BME280_humidity;BME280_pressure;Samples;Min_cycle;Max_cycle;Signal;HPM_P1;HPM_P2
2022/10/11 00:00:51;;;;;;;;;1.00;1.00;;;;;15.38;57.80;102044.50;4925126;28;45395;-75
2022/10/11 00:03:16;;;;;;;;;4.00;3.25;;;;;15.37;58.07;102039.19;4940027;28;45369;-75
2022/10/11 00:05:43;;;;;;;;;3.00;3.00;;;;;15.31;58.10;102039.22;4939569;28;45388;-75
2022/10/11 00:08:10;;;;;;;;;4.00;4.00;;;;;15.31;58.09;102040.09;4919351;28;45523;-75
2022/10/11 00:10:35;;;;;;;;;4.00;2.33;;;;;15.28;58.13;102040.09;4937482;28;45524;-75
2022/10/11 00:13:01;;;;;;;;;3.00;2.25;;;;;15.30;58.17;102050.72;4922481;28;45588;-77
2022/10/11 00:15:26;;;;;;;;;4.33;3.33;;;;;15.26;58.53;102043.66;4939609;28;45859;-77
2022/10/11 00:17:52;;;;;;;;;1.75;1.75;;;;;15.30;58.19;102051.63;4939218;28;45583;-78
2022/10/11 00:20:17;;;;;;;;;2.00;2.00;;;;;15.26;58.27;102060.44;4939725;28;45469;-77
2022/10/11 00:22:43;;;;;;;;;2.00;2.00;;;;;15.17;58.13;102055.19;4941010;28;45359;-77
2022/10/11 00:25:10;;;;;;;;;3.00;2.67;;;;;15.21;58.17;102060.47;4941987;28;45516;-76
2022/10/11 00:27:36;;;;;;;;;4.67;1.67;;;;;15.19;58.11;102059.59;4921605;28;45273;-77
2022/10/11 00:30:06;;;;;;;;;3.67;3.00;;;;;15.16;58.15;102049.00;4922187;28;45342;-77
2022/10/11 00:32:36;;;;;;;;;4.00;3.00;;;;;15.20;57.76;102066.66;4924425;28;45501;-77
2022/10/11 00:35:03;;;;;;;;;3.00;3.00;;;;;15.11;57.54;102064.03;4941461;28;45585;-77
2022/10/11 00:37:29;;;;;;;;;1.00;1.00;;;;;15.16;57.72;102078.16;4941656;28;46717;-77
2022/10/11 00:39:55;;;;;;;;;2.50;2.50;;;;;15.13;57.73;102064.91;4924227;28;45475;-77
2022/10/11 00:42:22;;;;;;;;;3.00;3.00;;;;;15.16;57.77;102064.91;4941734;28;45402;-78
2022/10/11 00:44:49;;;;;;;;;1.33;1.00;;;;;15.22;57.58;102083.47;4924359;28;45699;-78
2022/10/11 00:47:19;;;;;;;;;4.00;2.67;;;;;15.24;57.61;102082.59;4941271;28;45367;-78
2022/10/11 00:49:59;;;;;;;;;4.00;4.00;;;;;15.23;57.26;102084.34;4912079;28;45354;-77
2022/10/11 00:52:30;;;;;;;;;2.00;1.00;;;;;15.23;57.35;102073.72;4941217;28;45506;-78
2022/10/11 00:55:01;;;;;;;;;3.50;3.00;;;;;15.22;57.46;102072.84;4941506;28;45452;-77
2022/10/11 00:57:30;;;;;;;;;1.25;1.25;;;;;15.21;57.21;102072.88;4941524;28;45252;-78
2022/10/11 00:59:57;;;;;;;;;4.67;2.67;;;;;15.26;56.87;102080.78;4941622;28;45426;-78
2022/10/11 01:02:23;;;;;;;;;3.50;2.25;;;;;15.26;56.79;102086.09;4941297;28;45438;-78
2022/10/11 01:04:49;;;;;;;;;1.33;1.00;;;;;15.24;57.18;102067.56;4941350;28;45654;-77
2022/10/11 01:07:17;;;;;;;;;3.00;2.00;;;;;15.28;56.71;102071.94;4941032;28;45268;-78
2022/10/11 01:09:43;;;;;;;;;2.33;1.33;;;;;15.27;56.50;102086.13;4940004;28;45560;-77
2022/10/11 01:12:17;;;;;;;;;3.00;1.00;;;;;15.29;56.19;102078.13;4941301;28;45553;-77
2022/10/11 01:14:45;;;;;;;;;2.67;2.00;;;;;15.28;56.20;102079.91;4932831;28;47174;-77
2022/10/11 01:17:20;;;;;;;;;3.00;2.67;;;;;15.28;56.31;102074.59;4940935;28;45423;-77
2022/10/11 01:19:51;;;;;;;;;2.00;2.00;;;;;15.30;56.05;102083.44;4941392;28;45349;-77
2022/10/11 01:22:19;;;;;;;;;2.00;2.00;;;;;15.32;56.06;102081.69;4940736;28;45233;-77
2022/10/11 01:25:22;;;;;;;;;1.00;1.00;;;;;15.34;55.61;102079.00;4940679;28;46590;-77
2022/10/11 01:27:54;;;;;;;;;3.00;1.00;;;;;15.34;55.79;102081.66;4862971;29;45552;-77
2022/10/11 01:30:28;;;;;;;;;4.00;3.00;;;;;15.31;55.63;102084.31;4916286;28;45322;-77
2022/10/11 01:33:21;;;;;;;;;2.67;2.67;;;;;15.29;55.31;102084.34;4940841;28;45561;-78
2022/10/11 01:36:01;;;;;;;;;3.25;3.00;;;;;15.23;55.23;102087.00;4920385;28;48010;-77
2022/10/11 01:38:51;;;;;;;;;3.00;2.00;;;;;15.20;55.11;102079.03;4928322;28;45604;-77
2022/10/11 01:41:27;;;;;;;;;4.00;4.00;;;;;15.16;55.56;102078.16;4923684;28;45415;-76
2022/10/11 01:43:57;;;;;;;;;3.50;3.50;;;;;15.20;55.12;102079.03;4941216;28;45519;-77
2022/10/11 01:46:24;;;;;;;;;3.75;3.75;;;;;15.14;55.18;102073.75;4940556;28;45550;-76
2022/10/11 01:48:54;;;;;;;;;4.00;3.00;;;;;15.20;55.11;102087.88;4920499;28;45399;-76
2022/10/11 01:51:23;;;;;;;;;2.33;2.00;;;;;15.18;55.20;102081.72;4932869;28;45181;-76
2022/10/11 01:54:25;;;;;;;;;3.25;2.75;;;;;15.15;54.75;102075.50;4934425;28;45430;-76
2022/10/11 01:57:21;;;;;;;;;2.00;2.00;;;;;15.16;54.83;102079.94;4900661;28;48407;-76
2022/10/11 01:59:54;;;;;;;;;4.00;3.00;;;;;15.14;55.06;102076.41;4938696;28;45232;-76
2022/10/11 02:02:38;;;;;;;;;4.50;1.75;;;;;15.16;54.58;102072.88;4944003;28;45288;-77
2022/10/11 02:05:46;;;;;;;;;3.00;3.00;;;;;15.18;55.13;102079.06;4944228;28;45232;-76
2022/10/11 02:08:14;;;;;;;;;3.75;3.75;;;;;15.17;54.97;102071.97;4918774;28;47384;-76
2022/10/11 02:10:49;;;;;;;;;1.33;0.67;;;;;15.16;54.56;102074.66;4944001;28;45308;-76
2022/10/11 02:13:27;;;;;;;;;1.67;1.00;;;;;15.08;54.72;102065.81;4943971;28;45552;-76
2022/10/11 02:15:56;;;;;;;;;2.00;1.00;;;;;15.11;54.57;102073.75;4914417;28;46131;-76
2022/10/11 02:18:26;;;;;;;;;1.67;1.00;;;;;15.09;54.50;102062.25;4931598;28;46009;-76
2022/10/11 02:20:52;;;;;;;;;2.00;1.00;;;;;15.14;54.30;102065.78;4943458;28;45467;-77
2022/10/11 02:23:26;;;;;;;;;4.00;2.00;;;;;15.13;54.57;102070.22;4943871;28;45528;-76
2022/10/11 02:25:54;;;;;;;;;1.00;1.00;;;;;15.15;54.19;102073.72;4926413;28;46039;-76
2022/10/11 02:28:28;;;;;;;;;1.00;1.00;;;;;15.14;53.87;102071.97;4943904;28;46422;-76
2022/10/11 02:30:57;;;;;;;;;1.25;1.25;;;;;15.08;53.93;102069.34;4943853;28;45237;-77
2022/10/11 02:33:44;;;;;;;;;2.33;1.00;;;;;15.06;54.10;102078.19;4943776;28;45382;-77
2022/10/11 02:36:25;;;;;;;;;2.00;1.25;;;;;15.03;54.34;102076.41;4943195;28;45549;-76
2022/10/11 02:38:55;;;;;;;;;1.00;1.00;;;;;14.99;54.11;102072.91;4943760;28;45311;-76
2022/10/11 02:41:42;;;;;;;;;2.00;2.00;;;;;14.96;54.04;102078.16;4928324;28;45516;-77
2022/10/11 02:44:30;;;;;;;;;2.25;1.50;;;;;14.95;53.97;102075.53;4926561;28;45318;-76
2022/10/11 02:46:57;;;;;;;;;1.00;1.00;;;;;14.91;54.27;102074.63;4936280;28;45250;-77
2022/10/11 02:49:22;;;;;;;;;2.00;1.00;;;;;14.94;53.57;102076.41;4945986;28;45694;-77
2022/10/11 02:51:47;;;;;;;;;1.33;1.00;;;;;14.88;54.32;102066.69;4943839;28;45318;-77
2022/10/11 02:54:13;;;;;;;;;4.00;2.00;;;;;14.90;54.16;102075.53;4947233;28;45368;-77
2022/10/11 02:56:38;;;;;;;;;3.25;3.00;;;;;14.92;53.86;102080.84;4949702;28;45411;-77
2022/10/11 02:59:04;;;;;;;;;2.67;2.00;;;;;14.93;54.04;102078.19;4947858;28;45937;-77
2022/10/11 03:01:29;;;;;;;;;2.00;1.00;;;;;14.89;53.90;102073.78;4952808;28;45442;-77
2022/10/11 03:03:55;;;;;;;;;5.00;3.33;;;;;14.91;53.86;102076.41;4944097;28;45275;-76
2022/10/11 03:06:20;;;;;;;;;3.67;2.00;;;;;14.91;53.92;102074.63;4943806;28;45383;-77
2022/10/11 03:08:45;;;;;;;;;4.33;2.00;;;;;14.89;54.24;102080.81;4924892;28;46123;-76
2022/10/11 03:11:11;;;;;;;;;3.67;1.67;;;;;14.89;53.96;102073.78;4943933;28;45312;-77
2022/10/11 03:13:36;;;;;;;;;2.00;1.00;;;;;14.82;53.96;102084.38;4943641;28;45378;-77
2022/10/11 03:16:02;;;;;;;;;4.67;3.67;;;;;14.82;53.70;102085.25;4943256;28;45625;-77
2022/10/11 03:18:27;;;;;;;;;4.25;3.50;;;;;14.80;53.50;102080.84;4925462;28;46862;-76
2022/10/11 03:20:53;;;;;;;;;1.00;1.00;;;;;14.78;53.93;102088.78;4942753;28;45383;-77
2022/10/11 03:23:18;;;;;;;;;2.67;2.67;;;;;14.82;53.84;102093.22;4943020;28;45249;-76
2022/10/11 03:25:44;;;;;;;;;1.33;1.33;;;;;14.84;53.88;102091.44;4943183;28;45240;-77
2022/10/11 03:28:09;;;;;;;;;1.00;1.00;;;;;14.81;53.72;102093.19;4942872;28;45334;-77
2022/10/11 03:30:35;;;;;;;;;1.00;1.00;;;;;14.82;53.61;102095.88;4938174;28;45509;-76
2022/10/11 03:33:00;;;;;;;;;3.33;3.33;;;;;14.75;53.42;102088.78;4921001;28;45382;-76
2022/10/11 03:35:26;;;;;;;;;1.00;1.00;;;;;14.77;53.41;102094.97;4943028;28;45193;-77
2022/10/11 03:37:51;;;;;;;;;0.33;0.33;;;;;14.70;53.32;102090.53;4942428;28;45632;-77
2022/10/11 03:40:17;;;;;;;;;0.00;0.00;;;;;14.74;53.63;102093.19;4942968;28;45276;-77
2022/10/11 03:42:42;;;;;;;;;4.67;3.00;;;;;14.69;53.42;102092.31;4924973;28;45254;-77
2022/10/11 03:45:08;;;;;;;;;5.50;4.00;;;;;14.64;53.42;102087.88;4925443;28;45556;-77
2022/10/11 03:47:35;;;;;;;;;1.00;1.00;;;;;14.63;53.20;102092.31;4942332;28;45626;-77
2022/10/11 03:50:01;;;;;;;;;1.50;1.00;;;;;14.61;53.05;102104.66;4942569;28;45351;-77
2022/10/11 03:52:26;;;;;;;;;2.25;2.25;;;;;14.54;53.03;102093.19;4925044;28;45809;-76
2022/10/11 03:54:52;;;;;;;;;5.75;3.25;;;;;14.52;53.15;102105.56;4935757;28;45383;-77
2022/10/11 03:57:18;;;;;;;;;2.00;1.00;;;;;14.49;53.29;102117.88;4942132;28;46365;-76
2022/10/11 03:59:43;;;;;;;;;3.00;2.00;;;;;14.43;53.65;102107.25;4942345;28;45209;-77
2022/10/11 04:02:09;;;;;;;;;2.33;2.00;;;;;14.33;53.38;102104.59;4942336;28;45749;-77
2022/10/11 04:04:35;;;;;;;;;2.33;1.33;;;;;14.31;53.40;102116.94;4942572;28;45233;-77
2022/10/11 04:07:00;;;;;;;;;3.25;2.00;;;;;14.27;53.64;102115.19;4941903;28;46406;-77
2022/10/11 04:09:26;;;;;;;;;4.67;2.00;;;;;14.19;53.38;102105.41;4940867;28;45402;-77
2022/10/11 04:11:51;;;;;;;;;1.00;1.00;;;;;14.13;53.40;102117.75;4942321;28;45233;-76
2022/10/11 04:14:17;;;;;;;;;0.75;0.75;;;;;14.10;53.92;102112.44;4942309;28;45264;-76
2022/10/11 04:16:42;;;;;;;;;1.75;1.75;;;;;14.00;53.96;102115.94;4934459;28;47974;-77
2022/10/11 04:19:08;;;;;;;;;2.00;1.00;;;;;13.97;53.97;102109.75;4942283;28;45276;-77
2022/10/11 04:21:33;;;;;;;;;3.25;2.00;;;;;13.93;54.07;102121.22;4941306;28;45378;-77
2022/10/11 04:23:59;;;;;;;;;2.00;2.00;;;;;13.92;54.12;102122.97;4924658;28;45391;-77
2022/10/11 04:26:24;;;;;;;;;2.00;2.00;;;;;13.84;54.57;102119.41;4921366;28;46930;-77
2022/10/11 04:28:50;;;;;;;;;1.75;0.75;;;;;13.81;54.26;102127.31;4941851;28;45533;-77
2022/10/11 04:31:15;;;;;;;;;2.00;1.50;;;;;13.76;54.46;102129.94;4921936;28;45455;-77
2022/10/11 04:33:41;;;;;;;;;1.00;1.00;;;;;13.77;54.77;102130.84;4924720;28;45460;-77
2022/10/11 04:36:06;;;;;;;;;1.75;1.00;;;;;13.73;54.33;102135.22;4941404;28;45559;-78
2022/10/11 04:38:32;;;;;;;;;4.75;1.00;;;;;13.67;54.63;102130.78;4921494;28;45260;-77
2022/10/11 04:41:08;;;;;;;;;3.00;1.75;;;;;13.61;54.74;102127.22;4936133;28;45362;-77
2022/10/11 04:43:34;;;;;;;;;1.00;0.50;;;;;13.67;55.09;102140.50;4924435;28;45678;-78
2022/10/11 04:46:00;;;;;;;;;2.00;0.00;;;;;13.60;55.00;102131.59;4923885;28;47006;-77
2022/10/11 04:48:25;;;;;;;;;4.00;3.00;;;;;13.57;54.93;102118.38;4941848;28;45250;-77
2022/10/11 04:50:51;;;;;;;;;3.25;3.25;;;;;13.56;54.93;102121.91;4941499;28;45236;-77
2022/10/11 04:53:16;;;;;;;;;4.00;2.75;;;;;13.54;55.29;102122.75;4941618;28;45361;-77
2022/10/11 04:55:42;;;;;;;;;4.50;2.75;;;;;13.61;55.29;102129.88;4923950;28;47159;-76
2022/10/11 04:58:07;;;;;;;;;1.75;1.00;;;;;13.58;55.05;102133.38;4941466;28;45224;-77
2022/10/11 05:00:32;;;;;;;;;1.00;1.00;;;;;13.58;55.20;102133.38;4924130;28;45604;-77
2022/10/11 05:02:58;;;;;;;;;2.00;2.00;;;;;13.60;54.95;102134.25;4941684;28;45430;-77
2022/10/11 05:05:23;;;;;;;;;3.00;3.00;;;;;13.58;55.35;102128.09;4953989;28;45307;-77
2022/10/11 05:07:49;;;;;;;;;1.50;1.25;;;;;13.58;55.19;102145.72;4941137;28;45430;-77
2022/10/11 05:10:14;;;;;;;;;1.50;1.25;;;;;13.53;54.88;102129.81;4931183;28;45322;-77
2022/10/11 05:12:39;;;;;;;;;1.50;1.50;;;;;13.52;55.27;102141.25;4920822;28;45539;-77
2022/10/11 05:15:06;;;;;;;;;3.00;3.00;;;;;13.48;55.29;102135.97;4935345;28;45374;-77
2022/10/11 05:17:31;;;;;;;;;2.50;1.25;;;;;13.48;55.02;102135.97;4920919;28;45825;-77
2022/10/11 05:19:56;;;;;;;;;3.25;1.75;;;;;13.48;54.86;102142.13;4935298;28;45782;-78
2022/10/11 05:22:22;;;;;;;;;4.00;1.75;;;;;13.41;54.92;102132.38;4923727;28;45313;-77
2022/10/11 05:24:47;;;;;;;;;1.00;1.00;;;;;13.38;54.86;102133.25;4923754;28;47114;-77
2022/10/11 05:27:13;;;;;;;;;2.25;1.25;;;;;13.37;54.97;102127.97;4941472;28;45386;-77
2022/10/11 05:29:38;;;;;;;;;2.00;2.00;;;;;13.37;54.89;102131.47;4921076;28;45269;-77
2022/10/11 05:32:04;;;;;;;;;2.00;2.00;;;;;13.36;54.72;102128.81;4923891;28;45798;-77
2022/10/11 05:34:29;;;;;;;;;7.00;2.50;;;;;13.35;54.78;102125.28;4943337;28;45961;-77
2022/10/11 05:36:55;;;;;;;;;2.00;2.00;;;;;13.30;54.49;102119.06;4944306;28;45243;-77
2022/10/11 05:39:21;;;;;;;;;11.25;10.50;;;;;13.30;54.85;102127.00;4927019;28;45359;-77
2022/10/11 05:41:46;;;;;;;;;34.00;30.00;;;;;13.37;55.10;102135.88;4951758;28;45232;-77
2022/10/11 05:44:17;;;;;;;;;4.00;2.00;;;;;13.36;55.12;102128.81;4932182;28;46253;-77
2022/10/11 05:46:42;;;;;;;;;3.50;3.00;;;;;13.38;54.43;102129.72;4944166;28;45347;-77
2022/10/11 05:49:08;;;;;;;;;4.75;3.00;;;;;13.38;54.54;102138.53;4926877;28;46188;-77
2022/10/11 05:51:33;;;;;;;;;4.00;1.75;;;;;13.31;54.32;102118.22;4943977;28;45435;-77
2022/10/11 05:53:59;;;;;;;;;2.50;2.00;;;;;13.32;54.64;102121.75;4944070;28;46099;-77
2022/10/11 05:56:25;;;;;;;;;3.25;2.00;;;;;13.30;54.20;102121.72;4944041;28;45183;-77
2022/10/11 05:58:51;;;;;;;;;3.00;3.00;;;;;13.36;54.19;102142.03;4944022;28;45300;-77
2022/10/11 06:01:22;;;;;;;;;2.75;2.00;;;;;13.29;54.50;102129.66;4943798;28;45449;-76
2022/10/11 06:03:47;;;;;;;;;1.25;1.25;;;;;13.27;53.97;102126.13;4943604;28;46258;-76
2022/10/11 06:06:13;;;;;;;;;2.00;2.00;;;;;13.32;54.04;102138.50;4943858;28;45434;-76
2022/10/11 06:08:39;;;;;;;;;6.50;3.75;;;;;13.29;54.05;102138.47;4943414;28;45231;-77
2022/10/11 06:11:13;;;;;;;;;2.50;2.50;;;;;13.21;53.94;102133.09;4950050;28;45498;-77
2022/10/11 06:13:39;;;;;;;;;3.50;2.00;;;;;13.22;54.33;102132.19;4944014;28;47896;-77
2022/10/11 06:16:05;;;;;;;;;5.00;3.50;;;;;13.26;54.21;102135.81;4943596;28;45328;-77
2022/10/11 06:18:31;;;;;;;;;1.00;1.00;;;;;13.24;54.27;102148.97;4926377;28;45578;-77
2022/10/11 06:20:57;;;;;;;;;1.25;1.25;;;;;13.18;54.38;102137.47;4943306;28;45461;-77
2022/10/11 06:23:23;;;;;;;;;5.50;4.25;;;;;13.22;54.51;102158.66;4943478;28;45640;-77
2022/10/11 06:25:56;;;;;;;;;6.00;3.25;;;;;13.20;54.44;102160.41;4943606;28;45609;-77
2022/10/11 06:28:22;;;;;;;;;3.00;2.50;;;;;13.19;54.49;102161.28;4926434;28;45373;-76
2022/10/11 06:30:47;;;;;;;;;2.25;2.25;;;;;13.09;54.21;102153.25;4945333;28;45926;-77
2022/10/11 06:33:12;;;;;;;;;2.25;2.00;;;;;13.10;54.39;102163.84;4946543;28;46115;-77
2022/10/11 06:35:38;;;;;;;;;3.75;1.75;;;;;13.12;54.34;102161.19;4943460;28;45450;-78
2022/10/11 06:38:03;;;;;;;;;2.00;2.00;;;;;13.09;54.55;102174.41;4926065;28;45422;-77
2022/10/11 06:40:32;;;;;;;;;4.00;3.00;;;;;13.01;54.82;102162.00;4943378;28;45365;-78
2022/10/11 06:42:57;;;;;;;;;3.25;2.00;;;;;13.02;54.52;102168.19;4941533;28;46816;-79
2022/10/11 06:45:23;;;;;;;;;5.50;5.00;;;;;13.02;54.72;102177.00;4922175;28;45798;-78
2022/10/11 06:47:48;;;;;;;;;1.50;1.00;;;;;12.94;54.90;102167.22;4923319;28;45318;-78
2022/10/11 06:50:14;;;;;;;;;3.00;3.00;;;;;13.01;54.71;102185.78;4943236;28;45292;-78
2022/10/11 06:52:39;;;;;;;;;2.25;2.25;;;;;13.06;55.19;102185.84;4929487;28;47258;-77
2022/10/11 06:55:05;;;;;;;;;9.25;5.25;;;;;12.98;55.02;102169.91;4934411;28;45309;-77
2022/10/11 06:57:30;;;;;;;;;3.50;2.25;;;;;13.04;55.03;102174.34;4943054;28;45239;-78
2022/10/11 06:59:56;;;;;;;;;5.75;3.00;;;;;13.03;55.31;102176.13;4925469;28;45283;-78
2022/10/11 07:02:21;;;;;;;;;7.00;6.00;;;;;13.07;55.07;102178.78;4925201;28;46730;-76
2022/10/11 07:04:47;;;;;;;;;1.00;1.00;;;;;13.12;54.82;102183.22;4942963;28;45267;-76
2022/10/11 07:07:13;;;;;;;;;6.25;3.75;;;;;13.10;54.87;102177.06;4942726;28;45197;-78
2022/10/11 07:09:39;;;;;;;;;2.75;2.75;;;;;13.10;54.80;102170.91;4932619;28;45473;-80
2022/10/11 07:12:05;;;;;;;;;2.00;1.25;;;;;13.19;54.71;102184.19;4946749;28;46322;-79
2022/10/11 07:14:30;;;;;;;;;3.25;3.25;;;;;13.24;54.53;102190.41;4943200;28;45396;-78
2022/10/11 07:16:56;;;;;;;;;2.25;2.25;;;;;13.20;54.20;102184.22;4936832;28;46775;-78
2022/10/11 07:19:21;;;;;;;;;4.00;3.25;;;;;13.25;54.20;102195.69;4941111;28;45330;-78
2022/10/11 07:21:47;;;;;;;;;3.00;2.00;;;;;13.27;53.98;102203.69;4924034;28;46897;-78
2022/10/11 07:24:13;;;;;;;;;3.75;2.00;;;;;13.19;54.33;102185.06;4942579;28;45331;-78
2022/10/11 07:26:38;;;;;;;;;4.25;3.00;;;;;13.25;53.77;102193.03;4924529;28;45443;-78
2022/10/11 07:29:08;;;;;;;;;4.75;3.00;;;;;13.28;54.38;102194.00;4943957;28;45286;-77
2022/10/11 07:31:36;;;;;;;;;7.75;4.50;;;;;13.29;53.82;102199.31;4954498;28;45638;-78
2022/10/11 07:34:01;;;;;;;;;2.00;2.00;;;;;13.27;53.99;102193.13;4942251;28;45891;-78
2022/10/11 07:36:27;;;;;;;;;2.25;2.25;;;;;13.37;54.06;102207.31;4924712;28;45507;-81
2022/10/11 07:38:53;;;;;;;;;2.00;2.00;;;;;13.36;53.81;102205.53;4942076;28;45251;-79
2022/10/11 07:41:19;;;;;;;;;3.00;2.00;;;;;13.40;53.66;102210.84;4941938;28;45469;-77
2022/10/11 07:43:46;;;;;;;;;2.25;2.00;;;;;13.45;53.57;102214.44;4942281;28;45316;-78
2022/10/11 07:46:12;;;;;;;;;3.50;2.00;;;;;13.49;53.88;102223.25;4940605;28;45291;-78
2022/10/11 07:48:38;;;;;;;;;3.75;2.00;;;;;13.50;53.50;102227.69;4942067;28;45444;-79
2022/10/11 07:51:18;;;;;;;;;4.75;4.00;;;;;13.40;53.62;102209.97;4941332;28;45454;-78
2022/10/11 07:53:46;;;;;;;;;3.00;2.00;;;;;13.52;53.92;102240.94;4937491;28;45506;-78
2022/10/11 07:56:14;;;;;;;;;3.75;1.75;;;;;13.54;53.26;102231.25;4950262;28;45285;-78
2022/10/11 07:58:41;;;;;;;;;2.25;1.75;;;;;13.55;53.58;102230.38;4941626;28;45378;-79
2022/10/11 08:01:08;;;;;;;;;8.00;5.00;;;;;13.55;53.93;102233.91;4936480;28;47253;-79
2022/10/11 08:03:33;;;;;;;;;8.00;4.75;;;;;13.61;53.81;102241.03;4936141;28;45335;-78
2022/10/11 08:06:05;;;;;;;;;2.50;2.25;;;;;13.58;53.36;102235.66;4948956;28;45272;-76
2022/10/11 08:08:31;;;;;;;;;3.25;3.25;;;;;13.65;53.61;102250.72;4929047;28;45382;-80
2022/10/11 08:10:59;;;;;;;;;2.00;2.00;;;;;13.61;53.92;102222.50;4940253;28;45358;-82
2022/10/11 08:13:25;;;;;;;;;3.00;3.00;;;;;13.76;53.39;102240.22;4936597;28;45248;-79
2022/10/11 08:15:51;;;;;;;;;4.75;3.00;;;;;13.58;53.53;102219.78;4928746;28;45377;-79
2022/10/11 08:18:16;;;;;;;;;6.00;6.00;;;;;13.72;53.28;102249.91;4927693;28;45449;-79
2022/10/11 08:21:06;;;;;;;;;3.00;2.50;;;;;13.55;53.21;102217.13;4911137;28;47077;-84
2022/10/11 08:23:31;;;;;;;;;4.25;3.75;;;;;13.54;53.44;102224.19;4939947;28;46004;-78
2022/10/11 08:25:57;;;;;;;;;4.00;3.00;;;;;13.68;53.63;102245.47;4941203;28;45434;-79
2022/10/11 08:28:22;;;;;;;;;10.75;8.50;;;;;13.72;53.30;102235.81;4926516;28;45485;-78
2022/10/11 08:30:49;;;;;;;;;5.00;5.00;;;;;13.72;53.50;102230.50;4940844;28;45558;-79
2022/10/11 08:33:19;;;;;;;;;5.00;5.00;;;;;13.81;53.25;102249.97;4924015;28;45209;-78
2022/10/11 08:35:45;;;;;;;;;2.50;2.00;;;;;13.72;53.53;102238.47;4923957;28;45375;-78
2022/10/11 08:38:11;;;;;;;;;2.75;2.75;;;;;13.73;53.08;102230.50;4939440;28;45512;-78
2022/10/11 08:40:36;;;;;;;;;5.25;4.00;;;;;13.74;53.32;102229.66;4934344;28;46302;-78
2022/10/11 08:43:05;;;;;;;;;12.25;10.00;;;;;13.95;53.15;102257.13;4942662;28;45551;-79
2022/10/11 08:45:41;;;;;;;;;3.00;3.00;;;;;13.89;52.72;102244.72;4941133;28;45244;-79
2022/10/11 08:48:20;;;;;;;;;5.75;5.00;;;;;13.95;53.07;102243.88;4923704;28;45589;-79
2022/10/11 08:50:49;;;;;;;;;6.00;6.00;;;;;14.10;53.01;102263.41;4937829;28;47015;-79
2022/10/11 08:53:27;;;;;;;;;4.25;4.25;;;;;14.05;53.07;102245.72;4949495;28;45295;-79
2022/10/11 08:55:54;;;;;;;;;3.25;3.00;;;;;14.15;52.80;102252.84;4952442;28;45244;-79
2022/10/11 08:58:23;;;;;;;;;3.50;3.50;;;;;14.20;52.84;102250.25;4933248;28;45385;-79
2022/10/11 09:00:52;;;;;;;;;6.00;5.00;;;;;14.26;52.23;102261.75;4925574;28;48209;-79
2022/10/11 09:03:39;;;;;;;;;3.75;3.75;;;;;14.33;52.37;102262.66;4923696;28;45775;-79
2022/10/11 09:06:19;;;;;;;;;4.25;2.50;;;;;14.29;52.42;102251.16;4911985;28;45288;-79
2022/10/11 09:09:14;;;;;;;;;5.25;4.00;;;;;14.40;52.14;102259.16;4924919;28;45382;-79
2022/10/11 09:12:03;;;;;;;;;4.25;4.00;;;;;14.42;52.39;102260.06;4926775;28;46235;-79
2022/10/11 09:15:07;;;;;;;;;3.50;2.50;;;;;14.42;52.61;102248.56;4933477;28;45296;-79
2022/10/11 09:18:11;;;;;;;;;5.00;4.25;;;;;14.50;52.12;102260.97;4923323;28;45213;-79
2022/10/11 09:21:10;;;;;;;;;4.00;4.00;;;;;14.48;51.92;102253.88;4925462;28;45309;-79
2022/10/11 09:24:06;;;;;;;;;6.75;4.75;;;;;14.49;52.57;102256.56;4944195;28;45435;-78
2022/10/11 09:27:04;;;;;;;;;4.75;4.75;;;;;14.50;52.13;102244.19;4943912;28;45439;-78
2022/10/11 09:29:35;;;;;;;;;5.25;4.75;;;;;14.60;52.18;102253.13;4926590;28;45353;-80
2022/10/11 09:32:01;;;;;;;;;7.00;7.00;;;;;14.58;52.30;102237.19;4929795;28;45397;-80
2022/10/11 09:34:32;;;;;;;;;6.25;4.25;;;;;14.69;51.91;102245.19;4926594;28;47113;-79
2022/10/11 09:37:10;;;;;;;;;10.00;5.50;;;;;14.76;51.94;102253.16;4926456;28;45192;-80
2022/10/11 09:39:41;;;;;;;;;9.50;5.00;;;;;14.83;52.02;102250.53;4941979;28;45324;-80
2022/10/11 09:42:09;;;;;;;;;8.50;6.25;;;;;14.70;51.88;102215.13;4944223;28;45176;-79
2022/10/11 09:44:37;;;;;;;;;5.00;5.00;;;;;14.89;51.71;102245.22;4944106;28;45382;-79
2022/10/11 09:47:04;;;;;;;;;12.75;9.00;;;;;14.77;51.92;102219.56;4943869;28;45333;-79
2022/10/11 09:49:38;;;;;;;;;10.00;8.00;;;;;14.94;51.85;102244.38;4943938;28;45318;-79
2022/10/11 09:52:13;;;;;;;;;9.25;8.50;;;;;14.95;51.96;102232.00;4923145;28;45265;-79
2022/10/11 09:54:45;;;;;;;;;8.25;7.50;;;;;15.11;51.66;102236.44;4926471;28;47476;-78
2022/10/11 09:57:20;;;;;;;;;9.75;8.25;;;;;15.25;51.81;102233.81;4926630;28;45470;-79
2022/10/11 10:00:04;;;;;;;;;5.00;4.50;;;;;15.39;51.56;102239.13;4931391;28;45352;-79
2022/10/11 10:02:38;;;;;;;;;6.50;5.00;;;;;15.49;52.04;102235.59;4943556;28;45671;-79
2022/10/11 10:05:07;;;;;;;;;6.00;5.00;;;;;15.62;51.69;102242.66;4926289;28;47928;-79
2022/10/11 10:07:34;;;;;;;;;3.25;3.00;;;;;15.67;51.61;102213.47;4926560;28;45414;-78
2022/10/11 10:10:51;;;;;;;;;6.25;5.25;;;;;15.83;51.35;102225.84;4942232;28;45313;-78
2022/10/11 10:13:22;;;;;;;;;6.50;5.00;;;;;15.97;51.20;102215.19;4936310;28;45261;-79
2022/10/11 10:15:54;;;;;;;;;6.00;4.00;;;;;16.25;51.30;102239.03;4941851;28;48351;-79
2022/10/11 10:18:26;;;;;;;;;5.25;5.25;;;;;16.26;51.06;102211.59;4931055;28;45372;-79
2022/10/11 10:20:55;;;;;;;;;5.67;5.00;;;;;16.54;50.67;102233.59;4938639;28;45606;-79
2022/10/11 10:23:34;;;;;;;;;6.67;5.33;;;;;16.70;50.61;102235.28;4942472;28;45525;-80
2022/10/11 10:26:21;;;;;;;;;5.00;4.75;;;;;16.81;50.15;102213.09;4943633;28;45248;-80
2022/10/11 10:29:08;;;;;;;;;5.67;3.67;;;;;17.02;50.06;102228.06;4913571;28;45892;-79
2022/10/11 10:31:34;;;;;;;;;5.75;5.25;;;;;17.13;49.59;102224.44;4943302;28;45266;-80
2022/10/11 10:34:01;;;;;;;;;5.00;4.00;;;;;17.15;49.29;102205.78;4943418;28;45305;-79
2022/10/11 10:36:37;;;;;;;;;5.00;4.00;;;;;17.48;49.13;102231.28;4925727;28;47878;-80
2022/10/11 10:39:16;;;;;;;;;5.67;5.67;;;;;17.64;48.30;102227.56;4925917;28;45405;-79
2022/10/11 10:41:41;;;;;;;;;4.33;4.00;;;;;17.74;48.13;102215.03;4922832;28;45260;-80
2022/10/11 10:44:09;;;;;;;;;2.33;2.33;;;;;17.97;47.59;102213.97;4937076;28;45182;-80
2022/10/11 10:46:45;;;;;;;;;4.33;4.00;;;;;18.15;47.29;102211.09;4942503;28;46437;-79
2022/10/11 10:49:33;;;;;;;;;3.33;3.33;;;;;18.42;46.96;102223.19;4942873;28;45335;-80
2022/10/11 10:52:38;;;;;;;;;4.33;4.00;;;;;18.65;46.40;102222.88;4925508;28;45368;-80
2022/10/11 10:55:16;;;;;;;;;3.67;3.67;;;;;18.81;45.58;102207.56;4942803;28;45415;-80
2022/10/11 10:58:15;;;;;;;;;2.00;2.00;;;;;19.11;44.83;102219.59;4925310;28;46858;-80
2022/10/11 11:00:50;;;;;;;;;1.33;1.33;;;;;19.26;43.89;102217.59;4922767;28;45474;-80
2022/10/11 11:03:35;;;;;;;;;3.33;3.33;;;;;19.45;43.91;102212.81;4925648;28;45398;-80
2022/10/11 11:06:04;;;;;;;;;2.00;2.00;;;;;19.69;43.03;102214.22;4914223;28;45598;-80
2022/10/11 11:08:35;;;;;;;;;4.67;3.00;;;;;19.83;42.54;102205.03;4942208;28;45454;-79
2022/10/11 11:11:22;;;;;;;;;5.67;4.33;;;;;20.03;41.58;102209.97;4940654;28;45386;-78
2022/10/11 11:14:03;;;;;;;;;2.33;2.33;;;;;20.40;41.24;102211.03;4928129;28;45465;-79
2022/10/11 11:16:55;;;;;;;;;4.33;3.33;;;;;21.76;41.27;102199.78;4950441;28;45454;-79
2022/10/11 11:19:37;;;;;;;;;2.00;2.00;;;;;25.82;38.79;102199.78;4931482;28;46592;-80
2022/10/11 11:22:12;;;;;;;;;3.67;2.67;;;;;28.96;36.28;102193.72;4942255;28;45532;-80
2022/10/11 11:24:40;;;;;;;;;3.67;2.33;;;;;31.60;32.95;102192.41;4943467;28;45426;-80
2022/10/11 11:27:14;;;;;;;;;3.33;2.00;;;;;33.55;29.48;102192.63;4943127;28;45746;-80
2022/10/11 11:30:00;;;;;;;;;1.33;0.33;;;;;34.83;25.94;102193.25;4922567;28;46766;-80
2022/10/11 11:32:33;;;;;;;;;1.67;1.67;;;;;35.53;24.78;102200.09;4925029;28;45465;-79
2022/10/11 11:35:19;;;;;;;;;2.67;2.67;;;;;36.22;23.51;102178.44;4942702;28;45391;-79
2022/10/11 11:37:47;;;;;;;;;2.33;2.33;;;;;37.02;22.51;102182.13;4942591;28;45378;-79
2022/10/11 11:40:18;;;;;;;;;2.00;2.00;;;;;37.85;21.88;102179.72;4921577;28;47866;-78
2022/10/11 11:43:35;;;;;;;;;;;;;;;;;;;;;